Sea Success — VRS4325 — position and weather

sailwx.info

Track history (hours):
 
Tides and Currents Weather Stations Pressure Air Temp Water Temp Dewpoint Dewpoint Depression Visibility Wind Speed Wind Dir Waves Ship Positions

Sea Success

Last reported at 2015-Mar-27 09:33 UTC. Time now 2015-Mar-27 10:18 UTC.
Position N 22°19' E 114°09'.

Length 27 m.

Type: High speed craft. MMSI: 477995071.

Date/timePositionNaut miles runAvg speedWind from/ knotsBaromVisibWave heightAir tempDewpointWater temp
2015-Mar-27 09:33N 22°19' E 114°09'1 1.0
2015-Mar-27 08:33N 22°18' E 114°09'1 0.2
2015-Mar-27 05:33N 22°17' E 114°10'0 0.0
2015-Mar-27 02:33N 22°17' E 114°10'3 2.4
2015-Mar-27 01:14N 22°17' E 114°06'4 3.6
2015-Mar-27 00:10N 22°17' E 114°02'711.4
2015-Mar-26 23:33N 22°17' E 114°10'3 2.9
2015-Mar-26 22:33N 22°17' E 114°06'2 0.2
2015-Mar-26 13:33N 22°17' E 114°05'3 2.3
2015-Mar-26 12:14N 22°16' E 114°02'711.0
2015-Mar-26 11:33N 22°17' E 114°10'7 6.1
2015-Mar-26 10:26N 22°17' E 114°02'7 7.5
2015-Mar-26 09:33N 22°18' E 114°09'0 0.4
2015-Mar-26 08:34N 22°18' E 114°09'1 0.3
2015-Mar-26 05:33N 22°17' E 114°10'7 3.3
2015-Mar-26 03:19N 22°16' E 114°02'7 9.7
2015-Mar-26 02:33N 22°17' E 114°10'7 6.1
2015-Mar-26 01:20N 22°16' E 114°02'2 3.0
2015-Mar-26 00:32N 22°17' E 114°04'5 5.3
2015-Mar-25 23:33N 22°17' E 114°10'7 6.7
2015-Mar-25 22:32N 22°17' E 114°02'3 0.3
2015-Mar-25 13:32N 22°17' E 114°05'3 2.3
2015-Mar-25 12:06N 22°16' E 114°02'713.5
2015-Mar-25 11:33N 22°17' E 114°10'7 5.9
2015-Mar-25 10:24N 22°17' E 114°02'6 7.6
2015-Mar-25 09:34N 22°18' E 114°09'0 0.5
2015-Mar-25 08:33N 22°18' E 114°09'5 1.9
2015-Mar-25 06:04N 22°17' E 114°04'5 9.4
2015-Mar-25 05:33N 22°17' E 114°10'7 2.9
2015-Mar-25 03:11N 22°17' E 114°02'711.0
2015-Mar-25 02:33N 22°17' E 114°10'8 6.6
2015-Mar-25 01:24N 22°16' E 114°02'1 1.0
2015-Mar-25 00:09N 22°17' E 114°02'711.5
2015-Mar-24 23:33N 22°17' E 114°10'4 3.9
2015-Mar-24 22:33N 22°17' E 114°05'1 0.1
2015-Mar-24 13:33N 22°17' E 114°04'5 2.4
2015-Mar-24 11:33N 22°17' E 114°10'7 6.0
2015-Mar-24 10:24N 22°17' E 114°02'7 7.8
2015-Mar-24 09:33N 22°18' E 114°09'0 0.0
2015-Mar-24 08:33N 22°18' E 114°09'7 2.8
2015-Mar-24 06:09N 22°17' E 114°02'711.7
2015-Mar-24 05:33N 22°17' E 114°10'5 2.1
2015-Mar-24 03:04N 22°17' E 114°04'510.2
2015-Mar-24 02:33N 22°17' E 114°10'7 6.0
2015-Mar-24 01:20N 22°16' E 114°02'3 3.5
2015-Mar-24 00:33N 22°17' E 114°05'5 4.7
2015-Mar-23 23:34N 22°17' E 114°10'5 4.7
2015-Mar-23 22:33N 22°17' E 114°04'0 0.0
2015-Mar-23 13:32N 22°17' E 114°05'3 2.2
2015-Mar-23 12:08N 22°16' E 114°02'812.9
2015-Mar-23 11:33N 22°17' E 114°10'7 5.9
2015-Mar-23 10:24N 22°17' E 114°02'7 7.7
2015-Mar-23 09:33N 22°18' E 114°09'0 0.3
2015-Mar-23 08:33N 22°18' E 114°09'0 0.0
2015-Mar-23 07:33N 22°18' E 114°09'0 0.0
2015-Mar-23 06:33N 22°18' E 114°09'0 0.0
2015-Mar-23 05:33N 22°18' E 114°09'1 1.4
2015-Mar-23 04:33N 22°20' E 114°09'7 5.8
2015-Mar-23 03:18N 22°16' E 114°02'3 1.7
2015-Mar-23 01:33N 22°17' E 114°05'1 0.7
2015-Mar-23 00:33N 22°17' E 114°04'5 5.2
2015-Mar-22 23:34N 22°17' E 114°10'5 5.3
2015-Mar-22 22:33N 22°17' E 114°04'2 0.2
2015-Mar-22 14:05N 22°17' E 114°02'510.2
2015-Mar-22 13:34N 22°17' E 114°08'1 0.6
2015-Mar-22 12:33N 22°18' E 114°07'5 4.3
2015-Mar-22 11:21N 22°16' E 114°02'7 9.4
2015-Mar-22 10:33N 22°17' E 114°10'7 7.0
2015-Mar-22 09:33N 22°17' E 114°02'7 7.2
2015-Mar-22 08:33N 22°18' E 114°10'1 0.8
2015-Mar-22 07:33N 22°18' E 114°09'1 0.6
2015-Mar-22 06:33N 22°18' E 114°09'0 0.1
2015-Mar-22 05:33N 22°18' E 114°09'7 6.1
2015-Mar-22 04:27N 22°17' E 114°02'6 6.7
2015-Mar-22 03:34N 22°18' E 114°09'2 1.6
2015-Mar-22 02:30N 22°17' E 114°07'3 2.9
2015-Mar-22 01:33N 22°18' E 114°09'0 0.0
2015-Mar-22 00:33N 22°18' E 114°09'1 1.4
2015-Mar-21 23:33N 22°20' E 114°09'5 0.5
2015-Mar-21 13:33N 22°17' E 114°04'2 1.7
2015-Mar-21 12:14N 22°17' E 114°02'710.4
2015-Mar-21 11:33N 22°17' E 114°10'7 5.8
2015-Mar-21 10:23N 22°17' E 114°02'1 1.6
2015-Mar-21 09:33N 22°17' E 114°04'6 5.6
2015-Mar-21 08:33N 22°17' E 114°10'8 3.5
2015-Mar-21 06:22N 22°16' E 114°02'8 9.5
2015-Mar-21 05:33N 22°17' E 114°10'7 3.3
2015-Mar-21 03:21N 22°16' E 114°02'7 8.5
2015-Mar-21 02:34N 22°18' E 114°09'3 2.5
2015-Mar-21 01:32N 22°17' E 114°06'1 1.3
2015-Mar-21 00:33N 22°17' E 114°05'4 4.4
2015-Mar-20 23:33N 22°17' E 114°10'4 3.8
2015-Mar-20 22:30N 22°17' E 114°05'0 0.0
2015-Mar-20 13:32N 22°17' E 114°05'4 2.2
2015-Mar-20 11:33N 22°17' E 114°10'7 7.0
2015-Mar-20 10:33N 22°17' E 114°02'7 7.0
2015-Mar-20 09:33N 22°17' E 114°10'1 0.8
2015-Mar-20 08:33N 22°18' E 114°09'1 0.3
2015-Mar-20 05:33N 22°17' E 114°10'7 2.8
2015-Mar-20 03:08N 22°17' E 114°02'711.3
2015-Mar-20 02:32N 22°17' E 114°10'4 3.3
2015-Mar-20 01:13N 22°17' E 114°05'2 2.4
2015-Mar-20 00:11N 22°17' E 114°02'711.0
2015-Mar-19 23:33N 22°17' E 114°10'4 3.8
2015-Mar-19 22:27N 22°17' E 114°05'0 0.0
2015-Mar-19 13:33N 22°17' E 114°05'4 2.1
2015-Mar-19 11:33N 22°17' E 114°10'4 2.9
2015-Mar-19 10:16N 22°17' E 114°06'3 4.7
2015-Mar-19 09:33N 22°18' E 114°09'0 0.1
2015-Mar-19 08:33N 22°18' E 114°09'1 0.3
2015-Mar-19 05:33N 22°17' E 114°10'5 1.8
2015-Mar-19 03:05N 22°17' E 114°05'5 8.5
2015-Mar-19 02:33N 22°17' E 114°10'4 3.2
2015-Mar-19 01:12N 22°17' E 114°05'0 0.7
2015-Mar-19 00:33N 22°17' E 114°05'5 4.8
2015-Mar-18 23:33N 22°17' E 114°10'2 2.3
2015-Mar-18 22:33N 22°17' E 114°07'2 0.2
2015-Mar-18 13:32N 22°17' E 114°05'3 2.3
2015-Mar-18 12:14N 22°16' E 114°02'710.9
2015-Mar-18 11:33N 22°17' E 114°10'2 2.4
2015-Mar-18 10:33N 22°20' E 114°09'2 1.2
2015-Mar-18 08:32N 22°17' E 114°10'0 0.0
2015-Mar-18 05:33N 22°17' E 114°10'0 0.0
2015-Mar-18 02:33N 22°17' E 114°10'3 2.0
2015-Mar-18 01:12N 22°17' E 114°07'4 5.7
2015-Mar-18 00:27N 22°17' E 114°02'7 7.7
2015-Mar-17 23:34N 22°17' E 114°10'4 4.3
2015-Mar-17 22:32N 22°17' E 114°05'0 0.0
2015-Mar-17 13:32N 22°17' E 114°05'3 2.5
2015-Mar-17 12:15N 22°16' E 114°02'710.5
2015-Mar-17 11:33N 22°17' E 114°10'7 6.0
2015-Mar-17 10:25N 22°17' E 114°02'  
Track history (hours):
 
Tides and Currents Weather Stations Pressure Air Temp Water Temp Dewpoint Dewpoint Depression Visibility Wind Speed Wind Dir Waves Ship Positions

Sea Success

Last reported at 2015-Mar-27 09:33 UTC. Time now 2015-Mar-27 10:19 UTC.
Position N 22°19' E 114°09'.

Length 27 m.

Type: High speed craft. MMSI: 477995071.

Date/timePositionNaut miles runAvg speedWind from/ knotsBaromVisibWave heightAir tempDewpointWater temp
2015-Mar-27 09:33N 22°19' E 114°09'1 1.0
2015-Mar-27 08:33N 22°18' E 114°09'1 0.2
2015-Mar-27 05:33N 22°17' E 114°10'0 0.0
2015-Mar-27 02:33N 22°17' E 114°10'3 2.4
2015-Mar-27 01:14N 22°17' E 114°06'4 3.6
2015-Mar-27 00:10N 22°17' E 114°02'711.4
2015-Mar-26 23:33N 22°17' E 114°10'3 2.9
2015-Mar-26 22:33N 22°17' E 114°06'2 0.2
2015-Mar-26 13:33N 22°17' E 114°05'3 2.3
2015-Mar-26 12:14N 22°16' E 114°02'711.0
2015-Mar-26 11:33N 22°17' E 114°10'7 6.1
2015-Mar-26 10:26N 22°17' E 114°02'7 7.5
2015-Mar-26 09:33N 22°18' E 114°09'0 0.4
2015-Mar-26 08:34N 22°18' E 114°09'1 0.3
2015-Mar-26 05:33N 22°17' E 114°10'7 3.3
2015-Mar-26 03:19N 22°16' E 114°02'7 9.7
2015-Mar-26 02:33N 22°17' E 114°10'7 6.1
2015-Mar-26 01:20N 22°16' E 114°02'2 3.0
2015-Mar-26 00:32N 22°17' E 114°04'5 5.3
2015-Mar-25 23:33N 22°17' E 114°10'7 6.7
2015-Mar-25 22:32N 22°17' E 114°02'3 0.3
2015-Mar-25 13:32N 22°17' E 114°05'3 2.3
2015-Mar-25 12:06N 22°16' E 114°02'713.5
2015-Mar-25 11:33N 22°17' E 114°10'7 5.9
2015-Mar-25 10:24N 22°17' E 114°02'6 7.6
2015-Mar-25 09:34N 22°18' E 114°09'0 0.5
2015-Mar-25 08:33N 22°18' E 114°09'5 1.9
2015-Mar-25 06:04N 22°17' E 114°04'5 9.4
2015-Mar-25 05:33N 22°17' E 114°10'7 2.9
2015-Mar-25 03:11N 22°17' E 114°02'711.0
2015-Mar-25 02:33N 22°17' E 114°10'8 6.6
2015-Mar-25 01:24N 22°16' E 114°02'1 1.0
2015-Mar-25 00:09N 22°17' E 114°02'711.5
2015-Mar-24 23:33N 22°17' E 114°10'4 3.9
2015-Mar-24 22:33N 22°17' E 114°05'1 0.1
2015-Mar-24 13:33N 22°17' E 114°04'5 2.4
2015-Mar-24 11:33N 22°17' E 114°10'7 6.0
2015-Mar-24 10:24N 22°17' E 114°02'7 7.8
2015-Mar-24 09:33N 22°18' E 114°09'0 0.0
2015-Mar-24 08:33N 22°18' E 114°09'7 2.8
2015-Mar-24 06:09N 22°17' E 114°02'711.7
2015-Mar-24 05:33N 22°17' E 114°10'5 2.1
2015-Mar-24 03:04N 22°17' E 114°04'510.2
2015-Mar-24 02:33N 22°17' E 114°10'7 6.0
2015-Mar-24 01:20N 22°16' E 114°02'3 3.5
2015-Mar-24 00:33N 22°17' E 114°05'5 4.7
2015-Mar-23 23:34N 22°17' E 114°10'5 4.7
2015-Mar-23 22:33N 22°17' E 114°04'0 0.0
2015-Mar-23 13:32N 22°17' E 114°05'3 2.2
2015-Mar-23 12:08N 22°16' E 114°02'812.9
2015-Mar-23 11:33N 22°17' E 114°10'7 5.9
2015-Mar-23 10:24N 22°17' E 114°02'7 7.7
2015-Mar-23 09:33N 22°18' E 114°09'0 0.3
2015-Mar-23 08:33N 22°18' E 114°09'0 0.0
2015-Mar-23 07:33N 22°18' E 114°09'0 0.0
2015-Mar-23 06:33N 22°18' E 114°09'0 0.0
2015-Mar-23 05:33N 22°18' E 114°09'1 1.4
2015-Mar-23 04:33N 22°20' E 114°09'7 5.8
2015-Mar-23 03:18N 22°16' E 114°02'3 1.7
2015-Mar-23 01:33N 22°17' E 114°05'1 0.7
2015-Mar-23 00:33N 22°17' E 114°04'5 5.2
2015-Mar-22 23:34N 22°17' E 114°10'5 5.3
2015-Mar-22 22:33N 22°17' E 114°04'2 0.2
2015-Mar-22 14:05N 22°17' E 114°02'510.2
2015-Mar-22 13:34N 22°17' E 114°08'1 0.6
2015-Mar-22 12:33N 22°18' E 114°07'5 4.3
2015-Mar-22 11:21N 22°16' E 114°02'7 9.4
2015-Mar-22 10:33N 22°17' E 114°10'7 7.0
2015-Mar-22 09:33N 22°17' E 114°02'7 7.2
2015-Mar-22 08:33N 22°18' E 114°10'1 0.8
2015-Mar-22 07:33N 22°18' E 114°09'1 0.6
2015-Mar-22 06:33N 22°18' E 114°09'0 0.1
2015-Mar-22 05:33N 22°18' E 114°09'7 6.1
2015-Mar-22 04:27N 22°17' E 114°02'6 6.7
2015-Mar-22 03:34N 22°18' E 114°09'2 1.6
2015-Mar-22 02:30N 22°17' E 114°07'3 2.9
2015-Mar-22 01:33N 22°18' E 114°09'0 0.0
2015-Mar-22 00:33N 22°18' E 114°09'1 1.4
2015-Mar-21 23:33N 22°20' E 114°09'5 0.5
2015-Mar-21 13:33N 22°17' E 114°04'2 1.7
2015-Mar-21 12:14N 22°17' E 114°02'710.4
2015-Mar-21 11:33N 22°17' E 114°10'7 5.8
2015-Mar-21 10:23N 22°17' E 114°02'1 1.6
2015-Mar-21 09:33N 22°17' E 114°04'6 5.6
2015-Mar-21 08:33N 22°17' E 114°10'8 3.5
2015-Mar-21 06:22N 22°16' E 114°02'8 9.5
2015-Mar-21 05:33N 22°17' E 114°10'7 3.3
2015-Mar-21 03:21N 22°16' E 114°02'7 8.5
2015-Mar-21 02:34N 22°18' E 114°09'3 2.5
2015-Mar-21 01:32N 22°17' E 114°06'1 1.3
2015-Mar-21 00:33N 22°17' E 114°05'4 4.4
2015-Mar-20 23:33N 22°17' E 114°10'4 3.8
2015-Mar-20 22:30N 22°17' E 114°05'0 0.0
2015-Mar-20 13:32N 22°17' E 114°05'4 2.2
2015-Mar-20 11:33N 22°17' E 114°10'7 7.0
2015-Mar-20 10:33N 22°17' E 114°02'7 7.0
2015-Mar-20 09:33N 22°17' E 114°10'1 0.8
2015-Mar-20 08:33N 22°18' E 114°09'1 0.3
2015-Mar-20 05:33N 22°17' E 114°10'7 2.8
2015-Mar-20 03:08N 22°17' E 114°02'711.3
2015-Mar-20 02:32N 22°17' E 114°10'4 3.3
2015-Mar-20 01:13N 22°17' E 114°05'2 2.4
2015-Mar-20 00:11N 22°17' E 114°02'711.0
2015-Mar-19 23:33N 22°17' E 114°10'4 3.8
2015-Mar-19 22:27N 22°17' E 114°05'0 0.0
2015-Mar-19 13:33N 22°17' E 114°05'4 2.1
2015-Mar-19 11:33N 22°17' E 114°10'4 2.9
2015-Mar-19 10:16N 22°17' E 114°06'3 4.7
2015-Mar-19 09:33N 22°18' E 114°09'0 0.1
2015-Mar-19 08:33N 22°18' E 114°09'1 0.3
2015-Mar-19 05:33N 22°17' E 114°10'5 1.8
2015-Mar-19 03:05N 22°17' E 114°05'5 8.5
2015-Mar-19 02:33N 22°17' E 114°10'4 3.2
2015-Mar-19 01:12N 22°17' E 114°05'0 0.7
2015-Mar-19 00:33N 22°17' E 114°05'5 4.8
2015-Mar-18 23:33N 22°17' E 114°10'2 2.3
2015-Mar-18 22:33N 22°17' E 114°07'2 0.2
2015-Mar-18 13:32N 22°17' E 114°05'3 2.3
2015-Mar-18 12:14N 22°16' E 114°02'710.9
2015-Mar-18 11:33N 22°17' E 114°10'2 2.4
2015-Mar-18 10:33N 22°20' E 114°09'2 1.2
2015-Mar-18 08:32N 22°17' E 114°10'0 0.0
2015-Mar-18 05:33N 22°17' E 114°10'0 0.0
2015-Mar-18 02:33N 22°17' E 114°10'3 2.0
2015-Mar-18 01:12N 22°17' E 114°07'4 5.7
2015-Mar-18 00:27N 22°17' E 114°02'7 7.7
2015-Mar-17 23:34N 22°17' E 114°10'4 4.3
2015-Mar-17 22:32N 22°17' E 114°05'0 0.0
2015-Mar-17 13:32N 22°17' E 114°05'3 2.5
2015-Mar-17 12:15N 22°16' E 114°02'710.5
2015-Mar-17 11:33N 22°17' E 114°10'7 6.0
2015-Mar-17 10:25N 22°17' E 114°02'  

Dump ship's entire track history